Time;durP1;ratioP1;P1;durP2;ratioP2;P2;SDS_P1;SDS_P2;PMS_P1;PMS_P2;Temp;Humidity;BMP_temperature;BMP_pressure;BME280_temperature;BME280_humidity;BME280_pressure;Samples;Min_cycle;Max_cycle;Signal;HPM_P1;HPM_P2
2021/11/05 07:22:20;;;;;;;2.20;0.70;;;;;;;17.52;58.58;102132.44;5733899;24;20139;-83
2021/11/05 07:38:31;;;;;;;6.20;1.23;;;;;;;17.71;58.68;102160.44;5083831;23;21095;-81
2021/11/05 08:12:23;;;;;;;35.42;8.40;;;;;;;18.07;61.77;102211.19;4844055;23;20109;-82
2021/11/05 08:14:48;;;;;;;29.38;6.60;;;;;;;18.02;61.75;102224.16;4816010;29;20042;-81
2021/11/05 08:17:14;;;;;;;21.02;5.57;;;;;;;17.98;61.87;102222.38;4815022;29;20114;-78
2021/11/05 08:19:39;;;;;;;27.48;5.28;;;;;;;18.13;61.17;102224.28;4816146;29;20085;-79
2021/11/05 08:22:05;;;;;;;24.48;4.85;;;;;;;18.27;61.03;102227.03;4812594;29;20037;-81
2021/11/05 08:24:31;;;;;;;22.75;4.72;;;;;;;18.35;60.82;102225.34;4799891;29;20481;-78
2021/11/05 08:26:59;;;;;;;17.38;4.53;;;;;;;18.42;60.58;102231.50;4799325;29;20046;-76
2021/11/05 08:29:24;;;;;;;14.30;3.65;;;;;;;18.45;60.45;102234.16;4798144;29;20092;-81
2021/11/05 08:31:50;;;;;;;14.27;3.38;;;;;;;18.38;60.43;102241.03;4809026;29;20374;-79
2021/11/05 08:34:16;;;;;;;12.82;4.15;;;;;;;18.29;61.29;102249.63;4812354;29;20038;-80
2021/11/05 08:36:41;;;;;;;11.57;3.67;;;;;;;18.24;61.39;102250.44;4798376;29;20142;-81
2021/11/05 08:39:08;;;;;;;16.27;3.67;;;;;;;18.17;61.26;102254.72;4815070;29;20038;-81
2021/11/05 08:41:35;;;;;;;13.10;3.30;;;;;;;18.11;61.91;102256.38;4817560;29;20014;-81
2021/11/05 08:44:00;;;;;;;11.45;3.35;;;;;;;18.04;61.89;102258.91;4816338;29;20038;-79
2021/11/05 08:46:29;;;;;;;10.02;3.15;;;;;;;18.00;61.87;102258.88;4818969;29;20473;-82
2021/11/05 08:49:01;;;;;;;11.30;3.15;;;;;;;17.99;61.82;102264.94;4817058;29;20064;-81
2021/11/05 08:51:28;;;;;;;9.35;3.30;;;;;;;17.97;61.73;102272.72;4802377;29;20054;-80
2021/11/05 08:53:53;;;;;;;9.68;2.90;;;;;;;17.97;61.66;102270.13;4813523;29;20050;-81
2021/11/05 09:13:08;;;;;;;8.35;2.78;;;;;;;18.11;60.19;102305.88;4865202;29;20048;-84
2021/11/05 09:15:55;;;;;;;10.70;3.22;;;;;;;18.10;59.87;102299.81;4864240;29;20105;-83
2021/11/05 09:18:41;;;;;;;9.57;2.80;;;;;;;18.07;60.33;102308.47;4859172;29;20042;-82
2021/11/05 09:43:39;;;;;;;9.93;2.42;;;;;;;17.86;60.24;102355.94;5712673;23;20074;-84
2021/11/05 10:49:40;;;;;;;5.03;1.60;;;;;;;18.02;58.81;102426.47;4826878;29;20158;-84
2021/11/05 10:52:23;;;;;;;3.75;1.50;;;;;;;18.03;58.82;102426.50;4813626;29;20031;-82
2021/11/05 10:54:58;;;;;;;3.50;1.50;;;;;;;18.03;58.71;102417.78;4813203;29;20131;-83
2021/11/05 10:57:44;;;;;;;4.13;1.40;;;;;;;18.06;58.70;102430.88;4813622;29;20035;-83
2021/11/05 11:00:29;;;;;;;5.13;1.55;;;;;;;18.04;58.62;102420.41;4814072;29;20503;-83
2021/11/05 11:02:56;;;;;;;4.43;1.50;;;;;;;18.06;58.53;102431.75;4829094;29;20039;-84
2021/11/05 11:05:31;;;;;;;3.35;1.50;;;;;;;18.04;58.59;102427.38;4808427;29;20030;-83
2021/11/05 11:07:59;;;;;;;4.72;1.70;;;;;;;18.00;58.43;102433.38;4798424;29;20039;-83
2021/11/05 11:10:35;;;;;;;4.13;1.40;;;;;;;18.01;58.69;102435.16;4799018;29;20052;-84
2021/11/05 11:13:38;;;;;;;4.82;1.67;;;;;;;18.03;58.54;102434.31;4811954;29;20043;-84
2021/11/05 11:16:10;;;;;;;4.22;1.55;;;;;;;18.04;58.38;102436.06;4795547;30;20095;-84
2021/11/05 11:18:55;;;;;;;4.85;1.50;;;;;;;18.01;58.41;102438.63;4825960;29;20076;-84
2021/11/05 11:22:03;;;;;;;3.47;1.42;;;;;;;18.00;58.61;102436.84;4832356;29;20018;-83
2021/11/05 11:24:36;;;;;;;5.85;1.55;;;;;;;18.01;58.22;102441.22;4847527;29;20073;-85
2021/11/05 11:27:12;;;;;;;3.40;1.40;;;;;;;18.00;58.22;102449.88;4847693;29;20018;-84
2021/11/05 11:29:40;;;;;;;2.42;1.20;;;;;;;18.02;58.51;102449.91;4847576;29;20018;-85
2021/11/05 11:32:11;;;;;;;5.30;1.27;;;;;;;18.04;58.16;102441.25;4847687;29;20038;-84
2021/11/05 11:34:39;;;;;;;3.70;1.40;;;;;;;18.06;58.32;102449.09;4843497;29;20037;-84
2021/11/05 11:37:08;;;;;;;3.90;1.40;;;;;;;18.02;58.48;102452.53;4832225;29;20102;-85
2021/11/05 11:39:37;;;;;;;3.63;1.45;;;;;;;18.00;58.37;102452.50;4846719;29;20084;-84
2021/11/05 11:42:05;;;;;;;4.03;1.30;;;;;;;18.02;58.59;102452.53;4831763;29;20090;-83
2021/11/05 11:44:42;;;;;;;4.53;1.30;;;;;;;18.05;58.36;102460.38;4846848;29;20026;-82
2021/11/05 11:47:22;;;;;;;2.97;1.15;;;;;;;18.07;58.14;102450.84;4828130;29;20041;-83
2021/11/05 11:49:49;;;;;;;3.30;1.30;;;;;;;18.10;58.24;102456.13;4846937;29;20057;-84
2021/11/05 11:52:15;;;;;;;3.10;1.17;;;;;;;18.07;58.19;102458.66;4847325;29;20026;-84
2021/11/05 11:55:03;;;;;;;2.90;1.00;;;;;;;18.05;58.24;102460.38;4847199;29;20035;-84
2021/11/05 11:57:32;;;;;;;4.15;1.50;;;;;;;18.04;58.13;102454.28;4846569;29;20037;-83
2021/11/05 12:00:26;;;;;;;2.78;1.23;;;;;;;18.01;58.25;102463.81;4830990;29;20057;-84
2021/11/05 12:03:14;;;;;;;4.03;1.20;;;;;;;18.01;58.35;102461.19;4847303;29;20041;-84
2021/11/05 12:06:03;;;;;;;4.22;1.20;;;;;;;18.00;58.28;102467.25;4847676;29;20080;-85
2021/11/05 12:08:50;;;;;;;3.80;1.40;;;;;;;18.09;57.91;102468.28;4847705;29;20030;-85
2021/11/05 12:15:19;;;;;;;3.60;1.30;;;;;;;18.08;58.03;102466.50;4812041;29;20022;-85
2021/11/05 12:17:51;;;;;;;3.55;1.00;;;;;;;18.06;58.01;102468.22;4789998;29;20082;-81
2021/11/05 12:20:39;;;;;;;3.55;1.27;;;;;;;18.09;58.00;102472.59;4804320;29;20031;-81
2021/11/05 12:23:12;;;;;;;3.13;1.10;;;;;;;18.13;57.75;102483.94;4804237;29;20039;-81
2021/11/05 12:25:47;;;;;;;4.05;1.20;;;;;;;18.11;57.88;102481.31;4788939;30;20545;-81
2021/11/05 12:28:19;;;;;;;4.28;1.20;;;;;;;18.11;57.96;102486.50;4784437;29;20055;-81
2021/11/05 12:30:51;;;;;;;2.53;1.10;;;;;;;18.09;57.80;102483.00;4804260;29;20019;-81
2021/11/05 12:56:07;;;;;;;3.33;1.08;;;;;;;18.03;57.59;102507.25;4907352;23;20061;-84
2021/11/05 12:58:36;;;;;;;3.22;1.10;;;;;;;18.04;57.74;102500.31;4846342;29;20086;-84
2021/11/05 13:01:04;;;;;;;4.45;1.27;;;;;;;18.04;57.84;102510.72;4845555;29;20030;-84
2021/11/05 13:03:41;;;;;;;4.80;1.00;;;;;;;18.02;57.85;102502.88;4846600;29;20097;-85
2021/11/05 13:06:52;;;;;;;3.72;0.90;;;;;;;18.02;57.88;102505.47;4831412;29;20057;-84
2021/11/05 13:09:26;;;;;;;1.73;0.95;;;;;;;18.02;57.97;102512.44;4842117;29;20043;-83
2021/11/05 13:18:40;;;;;;;3.33;0.90;;;;;;;17.99;57.76;102504.59;4846783;29;20063;-84
2021/11/05 13:21:27;;;;;;;2.85;1.00;;;;;;;17.98;57.99;102513.22;4846260;29;20026;-85
2021/11/05 13:24:05;;;;;;;1.83;0.90;;;;;;;17.95;57.82;102516.66;4812421;29;20042;-85
2021/11/05 13:26:35;;;;;;;2.03;0.90;;;;;;;17.95;58.03;102516.66;4844871;29;20046;-84
2021/11/05 13:32:25;;;;;;;2.55;1.10;;;;;;;17.95;57.79;102514.06;4845948;29;20087;-84
2021/11/05 13:34:53;;;;;;;2.00;0.80;;;;;;;17.95;57.79;102515.81;4829711;29;20030;-84
2021/11/05 13:37:49;;;;;;;2.72;1.02;;;;;;;17.94;57.85;102512.28;4829731;29;20060;-85
2021/11/05 13:43:59;;;;;;;3.80;1.00;;;;;;;17.98;57.54;102521.06;4808837;30;20601;-84
2021/11/05 13:53:03;;;;;;;2.60;0.93;;;;;;;17.97;57.88;102516.72;4790824;30;20074;-84
2021/11/05 13:55:50;;;;;;;2.08;0.98;;;;;;;17.95;57.77;102515.81;4764871;30;20047;-84
2021/11/05 13:58:47;;;;;;;1.77;0.80;;;;;;;17.95;57.59;102524.50;4757742;30;20048;-84
2021/11/05 14:01:27;;;;;;;2.05;0.90;;;;;;;17.97;57.65;102519.31;4772999;30;20055;-83
2021/11/05 14:04:14;;;;;;;3.05;0.90;;;;;;;17.95;57.55;102518.41;4757745;30;20047;-83
2021/11/05 14:06:59;;;;;;;2.42;0.98;;;;;;;17.94;57.60;102524.44;4757622;30;20036;-84
2021/11/05 14:09:31;;;;;;;2.22;1.00;;;;;;;17.93;57.79;102523.59;4772130;30;20028;-85
2021/11/05 14:15:30;;;;;;;1.55;0.80;;;;;;;17.91;57.56;102522.69;4790970;30;20055;-85
2021/11/05 14:18:26;;;;;;;1.95;0.75;;;;;;;17.89;57.73;102522.66;4801947;30;20039;-85
2021/11/05 14:20:53;;;;;;;1.63;0.80;;;;;;;17.90;57.50;102531.38;4771098;30;20063;-81
2021/11/05 14:23:29;;;;;;;2.65;1.00;;;;;;;17.86;57.68;102521.75;4770066;30;20036;-84
2021/11/05 14:26:01;;;;;;;2.90;0.90;;;;;;;17.87;57.55;102526.09;4754751;30;20047;-84
2021/11/05 14:28:32;;;;;;;2.67;0.90;;;;;;;17.85;57.71;102528.66;4755451;30;20036;-81
2021/11/05 14:31:02;;;;;;;3.60;0.85;;;;;;;17.85;57.58;102530.38;4753914;30;20056;-80
2021/11/05 14:33:59;;;;;;;2.53;0.90;;;;;;;17.84;57.93;102526.91;4771351;30;20040;-82
2021/11/05 14:36:34;;;;;;;2.35;0.80;;;;;;;17.84;57.76;102528.66;4767496;30;20052;-82
2021/11/05 14:39:10;;;;;;;1.58;0.63;;;;;;;17.84;57.42;102529.53;4769314;30;20024;-84
2021/11/05 14:41:42;;;;;;;2.13;0.90;;;;;;;17.84;57.63;102528.66;4758925;30;20040;-84
2021/11/05 14:44:12;;;;;;;2.50;0.70;;;;;;;17.83;57.87;102524.28;4763699;30;20040;-81
2021/11/05 14:46:56;;;;;;;2.03;0.70;;;;;;;17.83;57.63;102535.59;4771774;30;20028;-85
2021/11/05 14:49:30;;;;;;;1.83;0.70;;;;;;;17.83;57.57;102530.38;4772707;30;20037;-85
2021/11/05 14:52:14;;;;;;;1.83;0.70;;;;;;;17.83;57.48;102533.00;4772164;30;20044;-85
2021/11/05 14:55:21;;;;;;;2.22;0.80;;;;;;;17.84;57.72;102542.53;4779536;30;20055;-84
2021/11/05 14:58:09;;;;;;;2.33;0.70;;;;;;;17.86;57.45;102542.56;4791283;30;20102;-85
2021/11/05 15:04:24;;;;;;;1.88;0.80;;;;;;;17.84;57.55;102550.34;4793907;30;20089;-84
2021/11/05 15:07:16;;;;;;;2.40;0.75;;;;;;;17.82;57.41;102544.25;4778395;30;20023;-85
2021/11/05 15:09:58;;;;;;;2.20;0.60;;;;;;;17.81;57.49;102541.56;4791357;30;20034;-85
2021/11/05 15:12:46;;;;;;;1.65;0.60;;;;;;;17.82;57.29;102559.00;4776279;30;20117;-85
2021/11/05 15:15:27;;;;;;;1.67;0.70;;;;;;;17.80;57.75;102563.28;4760450;30;20067;-82
2021/11/05 15:17:55;;;;;;;2.08;0.90;;;;;;;17.80;57.77;102565.88;4772098;30;20040;-85
2021/11/05 15:24:11;;;;;;;2.75;1.00;;;;;;;17.76;57.58;102562.31;4775502;30;20019;-84
2021/11/05 15:30:04;;;;;;;1.80;0.80;;;;;;;17.75;57.64;102565.81;4775830;30;20028;-84
2021/11/05 15:43:02;;;;;;;1.75;0.60;;;;;;;17.69;57.66;102571.75;4983285;24;20078;-84
2021/11/05 15:45:36;;;;;;;1.98;0.80;;;;;;;17.70;57.61;102575.25;4866145;29;20476;-84
2021/11/05 15:48:23;;;;;;;1.45;0.70;;;;;;;17.71;57.53;102582.22;4864105;29;20076;-81
2021/11/05 15:50:52;;;;;;;2.05;0.73;;;;;;;17.69;57.65;102584.78;4846386;29;20029;-81
2021/11/05 15:53:23;;;;;;;2.10;0.80;;;;;;;17.71;57.71;102586.56;4860297;29;20038;-81
2021/11/05 15:55:56;;;;;;;1.33;0.60;;;;;;;17.68;57.64;102593.47;4866130;29;20036;-82
2021/11/05 15:58:24;;;;;;;1.50;0.73;;;;;;;17.69;57.59;102591.72;4862299;29;20029;-81
2021/11/05 16:00:53;;;;;;;1.45;0.70;;;;;;;17.67;57.09;102599.50;4846394;29;20066;-81
2021/11/05 16:03:34;;;;;;;1.80;0.80;;;;;;;17.68;57.61;102603.88;4862070;29;20022;-82
2021/11/05 16:06:04;;;;;;;2.45;0.80;;;;;;;17.66;57.29;102605.56;4847209;29;20559;-81
2021/11/05 16:08:41;;;;;;;1.65;0.80;;;;;;;17.66;57.23;102602.97;4862898;29;20040;-81
2021/11/05 16:11:26;;;;;;;1.23;0.60;;;;;;;17.66;57.42;102613.38;4863215;29;20074;-82
2021/11/05 16:14:41;;;;;;;1.73;0.80;;;;;;;17.66;57.57;102615.97;4865542;29;20024;-81
2021/11/05 16:24:14;;;;;;;1.47;0.60;;;;;;;17.66;57.54;102625.53;4864053;29;20104;-82
2021/11/05 16:27:17;;;;;;;1.63;0.65;;;;;;;17.65;57.35;102634.16;4862908;29;20049;-81
2021/11/05 16:30:05;;;;;;;1.50;0.65;;;;;;;17.66;57.51;102643.75;4849033;29;20022;-81
2021/11/05 16:32:39;;;;;;;2.05;0.70;;;;;;;17.63;57.28;102636.72;4844975;29;20102;-81
2021/11/05 16:38:33;;;;;;;1.70;0.60;;;;;;;17.62;57.32;102653.22;4847619;29;20094;-82
2021/11/05 16:44:25;;;;;;;1.58;0.70;;;;;;;17.64;57.27;102661.06;5089374;23;20066;-83
2021/11/05 16:54:01;;;;;;;2.45;0.60;;;;;;;17.62;57.21;102657.56;4865007;29;20048;-82
2021/11/05 16:56:26;;;;;;;1.10;0.60;;;;;;;17.61;57.13;102658.38;4848135;29;20045;-81
2021/11/05 16:58:56;;;;;;;1.80;0.63;;;;;;;17.59;57.17;102663.56;4859876;29;20037;-81
2021/11/05 17:01:23;;;;;;;1.20;0.70;;;;;;;17.60;57.31;102667.06;4841438;29;20110;-81
2021/11/05 17:03:56;;;;;;;1.45;0.68;;;;;;;17.60;57.16;102672.25;4840697;29;20022;-81
2021/11/05 17:06:23;;;;;;;1.25;0.68;;;;;;;17.59;56.84;102671.38;4842306;29;20049;-82
2021/11/05 17:08:59;;;;;;;1.38;0.60;;;;;;;17.60;57.20;102672.25;4842785;29;20083;-81
2021/11/05 17:11:25;;;;;;;1.42;0.60;;;;;;;17.59;57.08;102671.38;4842120;29;20034;-81
2021/11/05 17:14:11;;;;;;;1.35;0.55;;;;;;;17.59;57.06;102679.16;4843786;29;20093;-82
2021/11/05 17:17:26;;;;;;;1.48;0.60;;;;;;;17.59;56.94;102678.31;4846267;29;20026;-82
2021/11/05 18:02:02;;;;;;;2.53;0.65;;;;;;;17.53;56.87;102699.00;5068351;24;20063;-83
2021/11/05 18:27:21;;;;;;;2.20;0.80;;;;;;;17.53;56.64;102712.00;4847336;29;20017;-84
2021/11/05 18:39:49;;;;;;;2.10;0.77;;;;;;;17.52;56.54;102713.75;4849561;29;20021;-84
2021/11/05 18:42:21;;;;;;;;;;;;;;;17.52;56.60;102716.34;4835154;29;20030;-85
2021/11/05 18:44:58;;;;;;;1.30;0.70;;;;;;;17.51;56.79;102709.41;4844987;29;19943;-81
2021/11/05 18:47:26;;;;;;;1.30;0.70;;;;;;;17.51;56.74;102713.72;4847090;29;20500;-82
2021/11/05 18:49:52;;;;;;;1.20;0.70;;;;;;;17.51;56.72;102713.72;4847254;29;20441;-81
2021/11/05 18:52:19;;;;;;;1.02;0.68;;;;;;;17.50;56.54;102711.97;4846078;29;20033;-81
2021/11/05 18:54:46;;;;;;;0.88;0.65;;;;;;;17.51;56.60;102718.91;4848144;29;20055;-81
2021/11/05 18:57:11;;;;;;;1.30;0.75;;;;;;;17.50;56.40;102717.16;4848397;29;20031;-81
2021/11/05 18:59:38;;;;;;;2.20;0.90;;;;;;;17.50;56.88;102720.66;4848156;29;20158;-81
2021/11/05 19:02:05;;;;;;;1.52;0.60;;;;;;;17.50;56.68;102718.03;4844380;29;20030;-81
2021/11/05 19:04:31;;;;;;;2.40;0.80;;;;;;;17.51;56.56;102718.91;4825811;29;20038;-81
2021/11/05 19:06:57;;;;;;;1.65;0.70;;;;;;;17.49;56.46;102724.09;4819664;29;20142;-81
2021/11/05 19:09:23;;;;;;;1.60;0.70;;;;;;;17.48;56.27;102731.06;4806183;30;20080;-80
2021/11/05 19:11:51;;;;;;;1.80;0.80;;;;;;;17.50;56.50;102730.19;4805369;30;20065;-81
2021/11/05 19:14:18;;;;;;;1.40;0.65;;;;;;;17.49;56.52;102724.09;4804794;29;20110;-81
2021/11/05 19:16:45;;;;;;;1.55;0.80;;;;;;;17.47;56.50;102721.47;4804675;30;20035;-81
2021/11/05 19:19:11;;;;;;;2.00;0.90;;;;;;;17.48;56.31;102731.06;4804833;30;20034;-80
2021/11/05 19:21:39;;;;;;;1.42;0.80;;;;;;;17.48;56.47;102719.72;4804113;29;20520;-81
2021/11/05 19:24:09;;;;;;;1.83;0.80;;;;;;;17.48;56.48;102723.25;4804448;29;20070;-80
2021/11/05 19:26:39;;;;;;;1.45;0.90;;;;;;;17.48;56.43;102720.63;4816693;29;20058;-81
2021/11/05 19:29:12;;;;;;;2.03;0.70;;;;;;;17.46;56.39;102718.81;4803971;30;20027;-81
2021/11/05 19:31:41;;;;;;;1.77;0.73;;;;;;;17.48;56.42;102725.84;4818854;29;20023;-80
2021/11/05 19:34:07;;;;;;;1.42;0.70;;;;;;;17.46;56.23;102716.22;4803472;30;20050;-81
2021/11/05 19:36:34;;;;;;;1.35;0.80;;;;;;;17.47;56.27;102731.88;4805022;30;20036;-82
2021/11/05 19:39:04;;;;;;;1.52;0.82;;;;;;;17.47;56.29;102725.81;4804874;29;20039;-81
2021/11/05 19:41:30;;;;;;;1.60;0.77;;;;;;;17.47;56.06;102726.66;4804850;30;20028;-81
2021/11/05 19:43:56;;;;;;;1.77;0.95;;;;;;;17.48;56.40;102730.16;4818600;29;20074;-81
2021/11/05 19:46:25;;;;;;;1.95;0.90;;;;;;;17.46;56.18;102729.22;4806240;29;20031;-80
2021/11/05 19:48:51;;;;;;;1.05;0.60;;;;;;;17.48;56.32;102730.16;4820439;29;20039;-80
2021/11/05 19:51:17;;;;;;;1.75;0.80;;;;;;;17.48;56.50;102737.94;4804450;30;20130;-81
2021/11/05 19:53:43;;;;;;;2.88;1.00;;;;;;;17.46;56.37;102731.84;4802281;30;20031;-81
2021/11/05 19:56:09;;;;;;;0.95;0.70;;;;;;;17.46;56.30;102735.34;4803430;29;20087;-81
2021/11/05 19:58:35;;;;;;;1.65;0.60;;;;;;;17.47;56.27;102739.69;4801867;29;20114;-80
2021/11/05 20:01:00;;;;;;;1.80;0.80;;;;;;;17.46;56.07;102731.84;4817256;29;20035;-81
2021/11/05 20:03:26;;;;;;;1.40;0.75;;;;;;;17.46;56.21;102731.84;4802479;30;20115;-78
2021/11/05 20:05:52;;;;;;;1.83;0.77;;;;;;;17.45;56.14;102736.16;4814660;29;20058;-81
2021/11/05 20:08:18;;;;;;;1.38;0.63;;;;;;;17.45;56.28;102733.56;4836226;29;20036;-81
2021/11/05 20:10:48;;;;;;;2.03;0.80;;;;;;;17.46;56.07;102739.66;4837417;29;20045;-81
2021/11/05 20:13:14;;;;;;;1.80;0.90;;;;;;;17.44;56.19;102729.22;4838571;29;20504;-80
2021/11/05 20:15:43;;;;;;;1.80;1.00;;;;;;;17.45;56.23;102728.38;4838435;29;20040;-80
2021/11/05 20:18:10;;;;;;;1.48;0.80;;;;;;;17.46;56.08;102730.13;4822072;29;20026;-81
2021/11/05 20:20:37;;;;;;;2.13;1.10;;;;;;;17.45;56.05;102732.69;4823117;29;20098;-81
2021/11/05 20:23:05;;;;;;;1.80;0.95;;;;;;;17.43;56.18;102727.44;4840220;29;20032;-81
2021/11/05 20:25:36;;;;;;;1.15;0.70;;;;;;;17.44;56.29;102734.44;4824998;29;20034;-81
2021/11/05 20:28:02;;;;;;;2.25;1.13;;;;;;;17.44;56.01;102734.44;4840121;29;20038;-81
2021/11/05 20:30:29;;;;;;;1.30;1.00;;;;;;;17.43;56.01;102737.88;4823735;29;20026;-81
2021/11/05 20:33:00;;;;;;;1.40;0.90;;;;;;;17.45;56.29;102745.72;4823310;29;20026;-80
2021/11/05 20:35:27;;;;;;;1.50;0.80;;;;;;;17.43;56.01;102748.28;4838009;29;20364;-80
2021/11/05 20:37:53;;;;;;;2.10;1.05;;;;;;;17.43;55.99;102750.88;4823113;29;20037;-81
2021/11/05 20:40:18;;;;;;;2.13;0.90;;;;;;;17.44;56.04;102751.75;4838613;29;20054;-81
2021/11/05 20:42:45;;;;;;;2.40;0.90;;;;;;;17.44;55.83;102752.66;4837062;29;20034;-81
2021/11/05 20:45:13;;;;;;;2.95;0.98;;;;;;;17.45;55.91;102754.38;4826160;29;20042;-78
2021/11/05 20:47:41;;;;;;;1.25;0.80;;;;;;;17.43;56.09;102748.28;4841526;29;20038;-81
2021/11/05 20:50:14;;;;;;;1.80;1.00;;;;;;;17.41;55.94;102752.56;4822310;29;20038;-81
2021/11/05 20:52:42;;;;;;;2.05;1.00;;;;;;;17.42;55.80;102754.34;4821537;29;20055;-81
2021/11/05 20:55:09;;;;;;;1.80;1.10;;;;;;;17.43;56.03;102745.66;4837075;29;20101;-81
2021/11/05 20:57:36;;;;;;;2.85;0.80;;;;;;;17.42;56.02;102746.53;4837485;29;20031;-80
2021/11/05 21:00:09;;;;;;;1.33;0.90;;;;;;;17.42;55.95;102743.94;4838347;29;20050;-81
2021/11/05 21:02:42;;;;;;;1.95;1.00;;;;;;;17.41;56.17;102747.34;4821977;29;20039;-81
2021/11/05 21:05:10;;;;;;;;;;;;;;;17.42;56.11;102758.63;4837679;29;20125;-81
2021/11/05 21:07:36;;;;;;;2.00;1.05;;;;;;;17.41;56.12;102749.09;4820247;29;19970;-81
2021/11/05 21:10:05;;;;;;;1.98;0.90;;;;;;;17.41;56.05;102749.09;4817772;29;20055;-81
2021/11/05 21:12:31;;;;;;;1.52;0.90;;;;;;;17.42;55.96;102746.53;4833614;29;20035;-81
2021/11/05 21:14:58;;;;;;;1.40;0.82;;;;;;;17.40;56.15;102749.94;4834199;29;20026;-79
2021/11/05 21:17:28;;;;;;;1.60;0.85;;;;;;;17.40;55.86;102749.94;4819557;29;20045;-81
2021/11/05 21:20:07;;;;;;;1.55;0.80;;;;;;;17.40;55.83;102749.94;4820484;29;20396;-81
2021/11/05 21:22:33;;;;;;;1.35;1.00;;;;;;;17.39;56.13;102746.44;4822227;29;20091;-81
2021/11/05 21:24:59;;;;;;;0.98;0.70;;;;;;;17.39;55.91;102749.03;4823775;29;20030;-81
2021/11/05 21:27:31;;;;;;;1.98;1.00;;;;;;;17.38;55.87;102746.44;4827882;29;20018;-80
2021/11/05 21:30:00;;;;;;;2.88;1.00;;;;;;;17.38;56.05;102746.44;4825639;29;20086;-81
2021/11/05 21:32:28;;;;;;;1.40;0.75;;;;;;;17.40;56.13;102752.56;4838648;29;20051;-82
2021/11/05 21:34:56;;;;;;;1.98;0.98;;;;;;;17.39;56.15;102759.47;4823497;29;20057;-81
2021/11/05 21:37:24;;;;;;;2.10;1.15;;;;;;;17.38;56.08;102752.50;4825099;29;20027;-81
2021/11/05 21:39:51;;;;;;;2.45;1.00;;;;;;;17.39;55.91;102750.78;4838374;29;20026;-81
2021/11/05 21:42:22;;;;;;;2.85;1.20;;;;;;;17.38;55.96;102746.44;4823408;29;20043;-81
2021/11/05 21:44:57;;;;;;;1.92;1.17;;;;;;;17.40;56.06;102760.38;4823209;29;20133;-81
2021/11/05 21:47:24;;;;;;;2.33;1.30;;;;;;;17.38;56.13;102749.03;4823703;29;20118;-81
2021/11/05 21:49:55;;;;;;;2.08;1.13;;;;;;;17.39;56.05;102749.03;4823513;29;20038;-81
2021/11/05 21:52:20;;;;;;;2.72;1.10;;;;;;;17.38;56.05;102752.50;4822175;29;20450;-81
2021/11/05 21:54:47;;;;;;;2.13;1.15;;;;;;;17.38;55.87;102759.44;4821394;29;20034;-81
2021/11/05 21:57:16;;;;;;;2.33;1.20;;;;;;;17.38;56.45;102754.25;4820361;29;20042;-80
2021/11/05 21:59:49;;;;;;;2.03;1.38;;;;;;;17.37;55.89;102749.88;4821811;29;20061;-81
2021/11/05 22:02:18;;;;;;;2.30;1.27;;;;;;;17.38;56.31;102749.91;4822158;29;20033;-82
2021/11/05 22:04:45;;;;;;;2.22;1.30;;;;;;;17.37;56.28;102750.72;4821726;29;20477;-81
2021/11/05 22:07:13;;;;;;;2.33;1.60;;;;;;;17.39;56.20;102753.38;4837181;29;20058;-81
2021/11/05 22:09:39;;;;;;;2.13;1.30;;;;;;;17.38;56.14;102749.03;4812134;29;20073;-80
2021/11/05 22:12:14;;;;;;;2.22;1.25;;;;;;;17.37;55.98;102747.25;4839954;29;20149;-81
2021/11/05 22:14:40;;;;;;;2.22;1.33;;;;;;;17.36;56.01;102753.31;4840041;29;20042;-82
2021/11/05 22:17:20;;;;;;;2.28;1.38;;;;;;;17.36;56.18;102751.59;4824269;29;20039;-81
2021/11/05 22:19:46;;;;;;;2.42;1.23;;;;;;;17.37;56.05;102749.88;4842034;29;20031;-81
2021/11/05 22:22:37;;;;;;;3.15;1.30;;;;;;;17.36;56.28;102749.00;4841333;29;20095;-82
2021/11/05 22:25:27;;;;;;;2.10;1.45;;;;;;;17.35;56.26;102747.22;4842432;29;20026;-81
2021/11/05 22:28:36;;;;;;;3.13;1.30;;;;;;;17.37;55.96;102749.88;4842904;29;20027;-80
2021/11/05 22:31:39;;;;;;;1.98;1.05;;;;;;;17.38;56.20;102749.03;4842340;29;20076;-82
2021/11/05 22:34:46;;;;;;;2.60;1.20;;;;;;;17.37;56.29;102752.47;4842287;29;20039;-81
2021/11/05 22:37:37;;;;;;;2.25;1.10;;;;;;;17.36;56.29;102741.19;4807358;29;20073;-82
2021/11/05 22:40:08;;;;;;;2.13;1.10;;;;;;;17.36;56.47;102746.38;4778562;29;20039;-81
2021/11/05 22:42:53;;;;;;;2.17;1.20;;;;;;;17.36;56.21;102741.19;4790920;30;20039;-81
2021/11/05 22:45:21;;;;;;;1.92;1.10;;;;;;;17.36;56.31;102742.91;4770222;30;20032;-82
2021/11/05 22:48:16;;;;;;;1.75;1.10;;;;;;;17.36;56.16;102732.50;4774407;30;20044;-82
2021/11/05 22:50:50;;;;;;;;;;;;;;;17.35;56.16;102736.81;4774856;30;20066;-78
2021/11/05 22:53:23;;;;;;;1.95;1.25;;;;;;;17.35;56.28;102733.34;4770556;30;19922;-81
2021/11/05 22:56:07;;;;;;;2.03;1.20;;;;;;;17.36;56.25;102737.72;4770295;30;20046;-81
2021/11/05 22:58:52;;;;;;;2.25;1.20;;;;;;;17.35;56.29;102742.00;4769671;30;20020;-81
2021/11/05 23:01:21;;;;;;;2.30;1.30;;;;;;;17.34;56.33;102740.28;4769456;30;20083;-81
2021/11/05 23:04:26;;;;;;;2.47;1.42;;;;;;;17.36;56.33;102735.97;4769443;30;20027;-81
2021/11/05 23:07:13;;;;;;;2.72;1.23;;;;;;;17.36;56.39;102732.50;4770074;30;20106;-81
2021/11/05 23:13:01;;;;;;;2.13;1.30;;;;;;;17.35;56.35;102735.94;4771585;30;20092;-81
2021/11/05 23:16:10;;;;;;;1.90;1.20;;;;;;;17.34;56.49;102734.19;4775784;30;20043;-81
2021/11/05 23:19:14;;;;;;;1.95;1.20;;;;;;;17.35;56.12;102741.16;4806273;29;20035;-81
2021/11/05 23:22:30;;;;;;;2.53;1.10;;;;;;;17.35;56.47;102738.53;4841501;29;20051;-81
2021/11/05 23:25:17;;;;;;;2.28;1.10;;;;;;;17.35;56.21;102734.22;4841514;29;20041;-82
2021/11/05 23:31:34;;;;;;;2.75;1.50;;;;;;;17.34;56.35;102734.19;4828057;29;20042;-81
2021/11/05 23:34:29;;;;;;;2.75;1.27;;;;;;;17.35;56.33;102733.34;4823996;29;20038;-81
2021/11/05 23:37:07;;;;;;;1.92;1.20;;;;;;;17.33;56.49;102727.22;4823561;29;20039;-81
2021/11/05 23:40:04;;;;;;;1.80;1.08;;;;;;;17.33;56.37;102730.69;4825033;29;20065;-81
2021/11/05 23:43:09;;;;;;;2.00;1.20;;;;;;;17.34;56.55;102735.06;4792748;29;20050;-81
2021/11/05 23:46:02;;;;;;;1.83;1.00;;;;;;;17.34;56.44;102732.47;4823373;29;20027;-81
2021/11/05 23:49:21;;;;;;;2.10;1.00;;;;;;;17.34;56.39;102731.59;4823934;29;20039;-81
2021/11/05 23:51:48;;;;;;;1.85;1.13;;;;;;;17.34;56.44;102736.81;4823458;29;20051;-82
2021/11/05 23:54:30;;;;;;;2.30;1.40;;;;;;;17.33;56.29;102741.09;4822192;29;20039;-81
2021/11/05 23:57:05;;;;;;;3.03;1.10;;;;;;;17.30;56.55;102728.03;4820117;29;20043;-81
2021/11/05 23:59:52;;;;;;;2.22;1.15;;;;;;;17.31;56.58;102737.63;4808355;29;20039;-81
